Time;durP1;ratioP1;P1;durP2;ratioP2;P2;SDS_P1;SDS_P2;PMS_P1;PMS_P2;Temp;Humidity;BMP_temperature;BMP_pressure;BME280_temperature;BME280_humidity;BME280_pressure;Samples;Min_cycle;Max_cycle;Signal;HPM_P1;HPM_P2
2024/01/15 00:01:01;;;;;;;;;;;17.50;57.10;;;;;;10331013;28;94598;-46
2024/01/15 00:06:03;;;;;;;;;;;17.50;56.80;;;;;;10319760;28;94105;-49
2024/01/15 00:11:05;;;;;;;;;;;17.40;56.60;;;;;;10324435;28;93272;-46
2024/01/15 00:16:07;;;;;;;;;;;17.40;57.00;;;;;;10326474;28;93811;-47
2024/01/15 00:21:08;;;;;;;;;;;17.30;57.40;;;;;;10320249;28;95938;-46
2024/01/15 00:26:10;;;;;;;;;;;17.20;57.40;;;;;;10324891;28;93692;-51
2024/01/15 00:31:13;;;;;;;;;;;17.20;57.00;;;;;;10319050;28;94803;-49
2024/01/15 00:36:16;;;;;;;;;;;17.20;56.70;;;;;;10322631;28;94565;-46
2024/01/15 00:41:18;;;;;;;;;;;17.20;56.70;;;;;;10320940;28;96280;-46
2024/01/15 00:46:20;;;;;;;;;;;17.20;56.30;;;;;;10325725;28;94764;-49
2024/01/15 00:51:23;;;;;;;;;;;17.10;56.10;;;;;;10325022;28;93427;-49
2024/01/15 00:56:25;;;;;;;;;;;17.10;55.80;;;;;;10321623;28;93267;-46
2024/01/15 01:01:26;;;;;;;;;;;17.10;55.70;;;;;;10323762;28;93716;-45
2024/01/15 01:06:28;;;;;;;;;;;17.00;55.60;;;;;;10316438;28;93507;-45
2024/01/15 01:11:33;;;;;;;;;;;17.00;56.30;;;;;;10324599;28;93761;-48
2024/01/15 01:16:38;;;;;;;;;;;16.90;56.80;;;;;;10322463;28;92742;-50
2024/01/15 01:21:41;;;;;;;;;;;16.90;56.50;;;;;;10319010;28;94541;-45
2024/01/15 01:26:45;;;;;;;;;;;16.90;56.30;;;;;;10321945;28;94318;-45
2024/01/15 01:31:48;;;;;;;;;;;16.80;56.00;;;;;;10322164;28;95807;-45
2024/01/15 01:36:50;;;;;;;;;;;16.80;55.80;;;;;;10331399;28;94422;-45
2024/01/15 01:41:53;;;;;;;;;;;16.80;55.70;;;;;;10324380;28;93511;-45
2024/01/15 01:46:55;;;;;;;;;;;16.80;55.40;;;;;;10329368;28;93378;-46
2024/01/15 01:51:58;;;;;;;;;;;16.70;55.30;;;;;;10322646;28;93108;-47
2024/01/15 01:56:59;;;;;;;;;;;16.70;55.10;;;;;;10316047;28;94309;-48
2024/01/15 02:07:17;;;;;;;;;;;16.60;55.80;;;;;;10248126;28;94740;-64
2024/01/15 02:12:19;;;;;;;;;;;16.60;56.30;;;;;;10293754;28;93490;-63
2024/01/15 02:17:21;;;;;;;;;;;16.60;55.90;;;;;;10273686;28;93434;-64
2024/01/15 02:22:22;;;;;;;;;;;16.50;55.60;;;;;;10274622;28;95656;-64
2024/01/15 02:27:25;;;;;;;;;;;16.50;55.30;;;;;;10263401;28;93957;-63
2024/01/15 02:32:26;;;;;;;;;;;16.50;55.20;;;;;;10295527;28;94660;-64
2024/01/15 02:37:28;;;;;;;;;;;16.50;55.00;;;;;;10270429;28;94004;-63
2024/01/15 02:42:30;;;;;;;;;;;16.50;54.80;;;;;;10272495;28;93895;-64
2024/01/15 02:47:32;;;;;;;;;;;16.50;54.60;;;;;;10284976;28;94469;-65
2024/01/15 02:52:34;;;;;;;;;;;16.40;54.50;;;;;;10285847;28;94149;-65
2024/01/15 02:57:35;;;;;;;;;;;16.40;55.00;;;;;;10286439;28;93722;-63
2024/01/15 03:02:43;;;;;;;;;;;16.40;55.40;;;;;;10285700;28;93278;-64
2024/01/15 03:07:48;;;;;;;;;;;16.30;55.70;;;;;;10276328;28;93741;-65
2024/01/15 03:12:50;;;;;;;;;;;16.30;55.10;;;;;;10270057;28;96176;-64
2024/01/15 03:17:52;;;;;;;;;;;16.30;55.10;;;;;;10270454;28;93465;-63
2024/01/15 03:22:54;;;;;;;;;;;16.30;55.10;;;;;;10279141;28;93429;-64
2024/01/15 03:27:55;;;;;;;;;;;16.30;54.70;;;;;;10276357;28;94533;-64
2024/01/15 03:32:57;;;;;;;;;;;16.30;54.50;;;;;;10272681;28;93468;-65
2024/01/15 03:37:59;;;;;;;;;;;16.30;54.30;;;;;;10273172;28;94247;-64
2024/01/15 03:43:01;;;;;;;;;;;16.30;54.20;;;;;;10273628;28;93451;-64
2024/01/15 03:48:03;;;;;;;;;;;16.30;54.10;;;;;;10277951;28;93508;-64
2024/01/15 03:53:05;;;;;;;;;;;16.30;54.60;;;;;;10280177;28;94431;-64
2024/01/15 03:58:07;;;;;;;;;;;16.30;55.10;;;;;;10276095;28;93374;-63
2024/01/15 04:03:09;;;;;;;;;;;16.20;55.00;;;;;;10271777;28;95874;-63
2024/01/15 04:08:11;;;;;;;;;;;16.20;54.80;;;;;;10269313;28;94074;-64
2024/01/15 04:13:12;;;;;;;;;;;16.20;54.50;;;;;;10276270;28;93737;-64
2024/01/15 04:18:15;;;;;;;;;;;16.20;54.30;;;;;;10274843;28;94525;-63
2024/01/15 04:23:17;;;;;;;;;;;16.20;54.10;;;;;;10272592;28;93493;-63
2024/01/15 04:28:19;;;;;;;;;;;16.20;54.00;;;;;;10276020;28;93472;-64
2024/01/15 04:33:21;;;;;;;;;;;16.20;53.70;;;;;;10269769;28;93949;-64
2024/01/15 04:38:23;;;;;;;;;;;16.20;54.10;;;;;;10269038;28;93372;-64
2024/01/15 04:43:25;;;;;;;;;;;16.10;54.30;;;;;;10266473;28;94900;-64
2024/01/15 04:48:27;;;;;;;;;;;16.10;54.50;;;;;;10268481;28;93041;-63
2024/01/15 04:53:29;;;;;;;;;;;16.00;54.70;;;;;;10270701;28;95858;-63
2024/01/15 04:58:31;;;;;;;;;;;16.00;54.80;;;;;;10262848;28;94471;-64
2024/01/15 05:03:33;;;;;;;;;;;16.00;54.90;;;;;;10273907;28;93417;-65
2024/01/15 05:08:34;;;;;;;;;;;16.00;55.00;;;;;;10273221;28;93854;-62
2024/01/15 05:13:36;;;;;;;;;;;15.90;55.20;;;;;;10271820;28;92867;-63
2024/01/15 05:18:38;;;;;;;;;;;15.90;55.30;;;;;;10274855;28;94263;-64
2024/01/15 05:23:40;;;;;;;;;;;15.90;55.50;;;;;;10278474;28;94273;-64
2024/01/15 05:28:44;;;;;;;;;;;15.90;56.60;;;;;;10278135;28;93801;-63
2024/01/15 05:33:46;;;;;;;;;;;15.80;55.70;;;;;;10285894;28;94384;-64
2024/01/15 05:38:49;;;;;;;;;;;15.80;55.70;;;;;;10278103;28;93750;-63
2024/01/15 05:43:51;;;;;;;;;;;15.80;55.50;;;;;;10295474;28;95748;-64
2024/01/15 05:48:53;;;;;;;;;;;16.00;55.60;;;;;;10268552;28;93362;-64
2024/01/15 05:53:55;;;;;;;;;;;16.20;55.30;;;;;;10270367;28;94032;-64
2024/01/15 05:58:57;;;;;;;;;;;16.50;54.90;;;;;;10276194;28;95969;-64
2024/01/15 06:03:58;;;;;;;;;;;16.70;54.40;;;;;;10277135;28;94361;-64
2024/01/15 06:09:05;;;;;;;;;;;16.90;54.20;;;;;;10262099;28;94382;-66
2024/01/15 06:14:07;;;;;;;;;;;17.00;53.90;;;;;;10265272;28;94684;-63
2024/01/15 06:19:08;;;;;;;;;;;17.10;53.80;;;;;;10274871;28;92637;-64
2024/01/15 06:24:11;;;;;;;;;;;17.00;53.70;;;;;;10281654;28;93683;-63
2024/01/15 06:29:12;;;;;;;;;;;17.00;53.80;;;;;;10271128;28;93372;-63
2024/01/15 06:34:14;;;;;;;;;;;17.00;54.40;;;;;;10267092;28;96641;-63
2024/01/15 06:39:16;;;;;;;;;;;16.90;55.20;;;;;;10262204;28;94451;-63
2024/01/15 06:44:21;;;;;;;;;;;16.90;55.50;;;;;;10258367;28;94977;-63
2024/01/15 06:49:23;;;;;;;;;;;17.00;55.70;;;;;;10275551;28;94323;-64
2024/01/15 06:54:26;;;;;;;;;;;17.20;56.10;;;;;;10272256;28;94639;-64
2024/01/15 06:59:28;;;;;;;;;;;17.10;56.00;;;;;;10274158;28;94567;-64
2024/01/15 07:04:30;;;;;;;;;;;17.10;56.00;;;;;;10275824;28;94576;-63
2024/01/15 07:09:31;;;;;;;;;;;17.10;56.40;;;;;;10277714;28;92069;-64
2024/01/15 07:14:33;;;;;;;;;;;17.10;56.50;;;;;;10276616;28;93223;-64
2024/01/15 07:19:35;;;;;;;;;;;17.10;56.50;;;;;;10276219;28;94827;-64
2024/01/15 07:24:37;;;;;;;;;;;17.10;56.50;;;;;;10267449;28;95867;-64
2024/01/15 07:29:39;;;;;;;;;;;17.10;56.70;;;;;;10274570;28;94210;-64
2024/01/15 07:34:40;;;;;;;;;;;17.00;56.70;;;;;;10270204;28;94120;-64
2024/01/15 07:39:42;;;;;;;;;;;17.00;57.00;;;;;;10272895;28;94312;-64
2024/01/15 07:44:47;;;;;;;;;;;17.00;57.20;;;;;;10254032;28;93961;-65
2024/01/15 07:49:49;;;;;;;;;;;16.90;57.40;;;;;;10275845;28;93332;-64
2024/01/15 07:54:51;;;;;;;;;;;16.80;57.30;;;;;;10255938;28;93517;-64
2024/01/15 07:59:53;;;;;;;;;;;16.70;57.30;;;;;;10269679;28;93860;-65
2024/01/15 08:04:55;;;;;;;;;;;16.70;57.40;;;;;;10257201;28;94317;-64
2024/01/15 08:09:58;;;;;;;;;;;16.60;57.40;;;;;;10276763;28;94568;-64
2024/01/15 08:15:02;;;;;;;;;;;16.50;57.40;;;;;;10263471;28;116627;-64
2024/01/15 08:20:04;;;;;;;;;;;16.50;57.70;;;;;;10263995;28;93781;-64
2024/01/15 08:25:07;;;;;;;;;;;16.40;57.70;;;;;;10254575;28;94086;-65
2024/01/15 08:30:10;;;;;;;;;;;16.30;57.60;;;;;;10272653;28;93922;-64
2024/01/15 08:35:11;;;;;;;;;;;16.30;57.60;;;;;;10265085;28;93397;-64
2024/01/15 08:40:13;;;;;;;;;;;16.20;57.70;;;;;;10247121;28;93878;-66
2024/01/15 08:45:15;;;;;;;;;;;16.10;57.80;;;;;;10274237;28;94450;-64
2024/01/15 08:50:17;;;;;;;;;;;16.10;57.90;;;;;;10298705;28;93969;-65
2024/01/15 08:55:22;;;;;;;;;;;16.10;58.00;;;;;;10253506;28;94765;-64
2024/01/15 09:00:24;;;;;;;;;;;16.00;57.90;;;;;;10269783;28;93422;-70
2024/01/15 09:05:26;;;;;;;;;;;16.00;58.00;;;;;;10262576;28;96970;-64
2024/01/15 09:10:27;;;;;;;;;;;15.90;58.00;;;;;;10276002;28;93652;-63
2024/01/15 09:15:29;;;;;;;;;;;15.90;58.20;;;;;;10265844;28;94380;-63
2024/01/15 09:20:31;;;;;;;;;;;15.90;58.10;;;;;;10269400;28;93527;-63
2024/01/15 09:25:33;;;;;;;;;;;15.80;58.10;;;;;;10271894;28;94243;-63
2024/01/15 09:30:35;;;;;;;;;;;15.80;58.10;;;;;;10244297;28;94401;-62
2024/01/15 09:35:36;;;;;;;;;;;15.80;58.30;;;;;;10260230;28;93490;-63
2024/01/15 09:40:40;;;;;;;;;;;15.70;58.20;;;;;;10270538;28;93820;-64
2024/01/15 09:45:42;;;;;;;;;;;15.70;58.20;;;;;;10278375;28;93432;-63
2024/01/15 09:50:43;;;;;;;;;;;15.70;58.30;;;;;;10281904;28;94421;-62
2024/01/15 09:55:46;;;;;;;;;;;15.70;58.30;;;;;;10269939;28;95812;-66
2024/01/15 10:00:49;;;;;;;;;;;15.80;58.30;;;;;;10264842;28;93171;-63
2024/01/15 10:05:51;;;;;;;;;;;15.90;58.00;;;;;;10269775;28;94139;-64
2024/01/15 10:10:53;;;;;;;;;;;15.90;57.80;;;;;;10267404;28;92795;-64
2024/01/15 10:15:55;;;;;;;;;;;16.00;57.70;;;;;;10254560;28;94036;-63
2024/01/15 10:20:57;;;;;;;;;;;16.00;57.60;;;;;;10256411;28;94714;-63
2024/01/15 10:25:59;;;;;;;;;;;15.90;57.50;;;;;;10274295;28;94102;-64
2024/01/15 10:31:01;;;;;;;;;;;15.90;57.50;;;;;;10274635;28;92851;-63
2024/01/15 10:36:09;;;;;;;;;;;15.90;57.50;;;;;;10265011;28;94095;-63
2024/01/15 10:41:11;;;;;;;;;;;15.90;57.60;;;;;;10274542;28;93291;-63
2024/01/15 10:46:13;;;;;;;;;;;15.80;57.50;;;;;;10266504;28;95890;-63
2024/01/15 10:51:15;;;;;;;;;;;15.80;57.60;;;;;;10262070;28;94717;-64
2024/01/15 10:56:17;;;;;;;;;;;15.80;57.70;;;;;;10267041;28;93586;-64
2024/01/15 11:01:19;;;;;;;;;;;15.70;57.60;;;;;;10297748;28;94881;-63
2024/01/15 11:06:23;;;;;;;;;;;15.70;57.60;;;;;;10255468;28;94363;-64
2024/01/15 11:11:25;;;;;;;;;;;15.60;57.60;;;;;;10251574;28;94590;-63
2024/01/15 11:16:47;;;;;;;;;;;15.60;57.70;;;;;;10270631;28;93205;-63
2024/01/15 11:21:50;;;;;;;;;;;15.60;57.80;;;;;;10269216;28;93771;-64
2024/01/15 11:26:54;;;;;;;;;;;15.60;57.70;;;;;;10274144;28;93292;-64
2024/01/15 11:31:57;;;;;;;;;;;15.70;57.70;;;;;;10287900;28;93582;-64
2024/01/15 11:37:03;;;;;;;;;;;15.70;58.40;;;;;;10271650;28;95346;-63
2024/01/15 11:42:05;;;;;;;;;;;15.80;57.20;;;;;;10258558;28;94518;-65
2024/01/15 11:47:08;;;;;;;;;;;15.80;57.10;;;;;;10286677;28;94420;-63
2024/01/15 11:52:18;;;;;;;;;;;15.80;57.10;;;;;;10284528;28;94571;-63
2024/01/15 11:57:25;;;;;;;;;;;15.80;56.90;;;;;;10270563;28;94473;-64
2024/01/15 12:02:26;;;;;;;;;;;15.80;56.90;;;;;;10262822;28;93504;-63
2024/01/15 12:07:28;;;;;;;;;;;15.80;56.90;;;;;;10268299;28;94536;-64
2024/01/15 12:12:39;;;;;;;;;;;15.70;56.90;;;;;;10263116;28;92495;-63
2024/01/15 12:17:41;;;;;;;;;;;15.70;56.90;;;;;;10279016;28;94599;-64
2024/01/15 12:22:43;;;;;;;;;;;15.70;57.00;;;;;;10280964;28;93443;-64
2024/01/15 12:28:01;;;;;;;;;;;15.60;56.90;;;;;;10247762;28;96124;-64
2024/01/15 12:33:04;;;;;;;;;;;15.60;57.00;;;;;;10256188;28;93462;-64
2024/01/15 12:38:06;;;;;;;;;;;15.60;57.10;;;;;;10276215;28;93487;-63
2024/01/15 12:43:08;;;;;;;;;;;15.60;57.10;;;;;;10270523;28;93426;-64
2024/01/15 12:48:10;;;;;;;;;;;15.60;57.20;;;;;;10270922;28;93562;-65
2024/01/15 12:53:12;;;;;;;;;;;15.60;57.30;;;;;;10272544;28;93411;-63
2024/01/15 12:58:14;;;;;;;;;;;15.50;58.20;;;;;;10271622;28;94915;-63
2024/01/15 13:03:18;;;;;;;;;;;15.50;57.30;;;;;;10270421;28;92702;-63
2024/01/15 13:08:20;;;;;;;;;;;15.60;57.40;;;;;;10281681;28;94118;-63
2024/01/15 13:13:22;;;;;;;;;;;15.70;57.10;;;;;;10271402;28;92608;-67
2024/01/15 13:18:24;;;;;;;;;;;15.70;57.00;;;;;;10267701;28;95813;-64
2024/01/15 13:23:26;;;;;;;;;;;15.70;56.90;;;;;;10264577;28;93374;-64
2024/01/15 13:28:28;;;;;;;;;;;15.70;56.80;;;;;;10246494;28;94314;-66
2024/01/15 13:33:30;;;;;;;;;;;15.70;56.80;;;;;;10263845;28;94399;-64
2024/01/15 13:38:36;;;;;;;;;;;15.70;56.70;;;;;;10279922;28;94022;-63
2024/01/15 13:43:38;;;;;;;;;;;15.60;56.70;;;;;;10274592;28;93493;-64
2024/01/15 13:48:40;;;;;;;;;;;15.60;56.60;;;;;;10276945;28;93337;-62
2024/01/15 13:53:42;;;;;;;;;;;15.60;56.60;;;;;;10269810;28;92570;-63
2024/01/15 13:58:44;;;;;;;;;;;15.50;56.60;;;;;;10280163;28;93953;-63
2024/01/15 14:03:45;;;;;;;;;;;15.50;56.70;;;;;;10261601;28;94344;-64
2024/01/15 14:08:48;;;;;;;;;;;15.40;56.70;;;;;;10287242;28;96324;-64
2024/01/15 14:13:49;;;;;;;;;;;15.40;56.80;;;;;;10263823;28;94767;-63
2024/01/15 14:18:51;;;;;;;;;;;15.40;56.80;;;;;;10277297;28;94618;-64
2024/01/15 14:23:53;;;;;;;;;;;15.40;57.10;;;;;;10270896;28;93587;-64
2024/01/15 14:28:55;;;;;;;;;;;15.40;56.90;;;;;;10263744;28;94355;-64
2024/01/15 14:33:59;;;;;;;;;;;15.50;56.70;;;;;;10260071;28;94088;-64
2024/01/15 14:39:01;;;;;;;;;;;15.50;56.60;;;;;;10260605;28;94528;-64
2024/01/15 14:44:03;;;;;;;;;;;15.50;56.50;;;;;;10266097;28;93724;-63
2024/01/15 14:49:05;;;;;;;;;;;15.50;56.40;;;;;;10262005;28;93368;-63
2024/01/15 14:54:08;;;;;;;;;;;15.50;56.30;;;;;;10273832;28;94387;-63
2024/01/15 14:59:10;;;;;;;;;;;15.50;56.30;;;;;;10260113;28;97179;-64
2024/01/15 15:04:12;;;;;;;;;;;15.50;56.30;;;;;;10282460;28;94423;-63
2024/01/15 15:09:15;;;;;;;;;;;15.50;57.40;;;;;;10266374;28;94481;-63
2024/01/15 15:14:17;;;;;;;;;;;15.50;56.30;;;;;;10284844;28;92556;-63
2024/01/15 15:19:19;;;;;;;;;;;15.50;56.00;;;;;;10280882;28;93444;-64
2024/01/15 15:24:21;;;;;;;;;;;15.50;56.00;;;;;;10266458;28;93557;-63
2024/01/15 15:29:24;;;;;;;;;;;15.60;55.90;;;;;;10254856;28;93661;-64
2024/01/15 15:34:26;;;;;;;;;;;15.50;55.80;;;;;;10265858;28;93795;-63
2024/01/15 15:39:30;;;;;;;;;;;15.50;55.70;;;;;;10263471;28;94343;-64
2024/01/15 15:44:32;;;;;;;;;;;15.50;55.90;;;;;;10247593;28;94478;-63
2024/01/15 15:49:34;;;;;;;;;;;15.50;55.80;;;;;;10278719;28;95786;-64
2024/01/15 15:54:37;;;;;;;;;;;15.40;55.70;;;;;;10266385;28;94489;-63
2024/01/15 15:59:39;;;;;;;;;;;15.40;55.80;;;;;;10259138;28;93471;-63
2024/01/15 16:04:42;;;;;;;;;;;15.40;55.90;;;;;;10277196;28;94346;-63
2024/01/15 16:09:44;;;;;;;;;;;15.30;55.90;;;;;;10272634;28;93437;-63
2024/01/15 16:14:46;;;;;;;;;;;15.40;56.00;;;;;;10267886;28;93876;-63
2024/01/15 16:19:48;;;;;;;;;;;15.50;55.80;;;;;;10256645;28;93851;-63
2024/01/15 16:25:10;;;;;;;;;;;15.60;55.60;;;;;;10270591;28;93831;-63
2024/01/15 16:30:12;;;;;;;;;;;15.60;55.40;;;;;;10260570;28;93294;-63
2024/01/15 16:35:30;;;;;;;;;;;15.60;55.20;;;;;;10264750;28;93456;-63
2024/01/15 16:40:32;;;;;;;;;;;15.60;55.10;;;;;;10258023;28;96802;-62
2024/01/15 16:45:33;;;;;;;;;;;15.60;55.20;;;;;;10260696;28;95055;-63
2024/01/15 16:50:35;;;;;;;;;;;15.50;55.10;;;;;;10268191;28;94319;-65
2024/01/15 16:55:37;;;;;;;;;;;15.50;55.10;;;;;;10269780;28;93989;-62
2024/01/15 17:00:39;;;;;;;;;;;15.50;55.30;;;;;;10267448;28;94551;-65
2024/01/15 17:05:41;;;;;;;;;;;15.50;55.30;;;;;;10269295;28;94768;-64
2024/01/15 17:10:42;;;;;;;;;;;15.40;55.20;;;;;;10270739;28;93413;-64
2024/01/15 17:15:44;;;;;;;;;;;15.40;55.50;;;;;;10282495;28;93617;-65
2024/01/15 17:20:47;;;;;;;;;;;15.50;55.50;;;;;;10271571;28;93452;-64
2024/01/15 17:25:49;;;;;;;;;;;15.70;55.40;;;;;;10280265;28;94540;-63
2024/01/15 17:30:50;;;;;;;;;;;16.00;55.00;;;;;;10261712;28;95100;-62
2024/01/15 17:35:53;;;;;;;;;;;16.30;57.60;;;;;;10266541;28;94432;-62
2024/01/15 17:40:55;;;;;;;;;;;16.50;57.50;;;;;;10265912;28;93527;-62
2024/01/15 17:46:00;;;;;;;;;;;16.70;56.30;;;;;;10275265;28;94535;-62
2024/01/15 17:51:03;;;;;;;;;;;17.00;55.60;;;;;;10275034;28;94652;-63
2024/01/15 17:56:05;;;;;;;;;;;17.20;55.20;;;;;;10263867;28;94411;-63
2024/01/15 18:01:06;;;;;;;;;;;17.40;54.80;;;;;;10270822;28;92553;-63
2024/01/15 18:06:09;;;;;;;;;;;17.60;54.50;;;;;;10264566;28;92713;-62
2024/01/15 18:11:17;;;;;;;;;;;17.80;54.20;;;;;;10264464;28;94396;-63
2024/01/15 18:16:22;;;;;;;;;;;17.90;53.90;;;;;;10279919;28;92953;-62
2024/01/15 18:21:25;;;;;;;;;;;18.10;53.60;;;;;;10264698;28;96897;-62
2024/01/15 18:26:27;;;;;;;;;;;18.20;53.40;;;;;;10264377;28;93425;-62
2024/01/15 18:31:29;;;;;;;;;;;18.30;53.10;;;;;;10277789;28;93876;-62
2024/01/15 18:36:31;;;;;;;;;;;18.50;52.90;;;;;;10270272;28;93415;-62
2024/01/15 18:41:34;;;;;;;;;;;18.50;52.80;;;;;;10268506;28;93602;-60
2024/01/15 18:46:36;;;;;;;;;;;18.60;52.70;;;;;;10276203;28;94555;-62
2024/01/15 18:51:38;;;;;;;;;;;18.70;52.60;;;;;;10267575;28;93553;-63
2024/01/15 18:56:40;;;;;;;;;;;18.80;52.40;;;;;;10259465;28;93126;-63
2024/01/15 19:01:43;;;;;;;;;;;18.80;52.40;;;;;;10279146;28;94709;-63
2024/01/15 19:06:45;;;;;;;;;;;18.80;52.40;;;;;;10253908;28;93388;-63
2024/01/15 19:11:50;;;;;;;;;;;18.70;52.40;;;;;;10258421;28;96431;-63
2024/01/15 19:16:52;;;;;;;;;;;18.60;52.60;;;;;;10279356;28;94384;-63
2024/01/15 19:21:54;;;;;;;;;;;18.60;52.70;;;;;;10272096;28;94544;-63
2024/01/15 19:26:57;;;;;;;;;;;18.60;52.70;;;;;;10280253;28;94551;-61
2024/01/15 19:32:00;;;;;;;;;;;18.70;52.60;;;;;;10283282;28;94419;-62
2024/01/15 19:37:02;;;;;;;;;;;18.80;52.50;;;;;;10283627;28;94984;-63
2024/01/15 19:42:04;;;;;;;;;;;18.80;52.40;;;;;;10279005;28;94409;-63
2024/01/15 19:47:06;;;;;;;;;;;18.90;52.30;;;;;;10283163;28;94278;-63
2024/01/15 19:52:08;;;;;;;;;;;18.80;52.30;;;;;;10266935;28;94029;-64
2024/01/15 19:57:10;;;;;;;;;;;18.70;52.50;;;;;;10272653;28;94781;-63
2024/01/15 20:02:12;;;;;;;;;;;18.70;52.60;;;;;;10273992;28;96843;-64
2024/01/15 20:07:14;;;;;;;;;;;18.70;51.70;;;;;;10271327;28;95058;-66
2024/01/15 20:12:15;;;;;;;;;;;18.80;52.40;;;;;;10299287;28;93488;-63
2024/01/15 20:17:18;;;;;;;;;;;18.90;52.40;;;;;;10269891;28;94270;-64
2024/01/15 20:22:20;;;;;;;;;;;18.90;52.20;;;;;;10284768;28;93593;-64
2024/01/15 20:27:21;;;;;;;;;;;18.90;52.30;;;;;;10272114;28;94346;-63
2024/01/15 20:32:23;;;;;;;;;;;18.80;53.20;;;;;;10282376;28;94447;-63
2024/01/15 20:37:25;;;;;;;;;;;18.70;52.40;;;;;;10246346;28;92678;-62
2024/01/15 20:42:28;;;;;;;;;;;18.70;52.40;;;;;;10280313;28;93898;-62
2024/01/15 20:47:31;;;;;;;;;;;18.60;52.40;;;;;;10284388;28;94630;-62
2024/01/15 20:52:34;;;;;;;;;;;18.60;52.60;;;;;;10268127;28;97786;-62
2024/01/15 20:57:36;;;;;;;;;;;18.40;52.80;;;;;;10278625;28;93440;-62
2024/01/15 21:02:39;;;;;;;;;;;18.30;52.90;;;;;;10280729;28;93468;-63
2024/01/15 21:07:41;;;;;;;;;;;18.10;53.10;;;;;;10259045;28;94422;-63
2024/01/15 21:12:43;;;;;;;;;;;18.00;53.30;;;;;;10267408;28;94852;-63
2024/01/15 21:17:45;;;;;;;;;;;17.90;53.60;;;;;;10280651;28;93542;-63
2024/01/15 21:22:51;;;;;;;;;;;17.70;53.90;;;;;;10261062;28;93486;-63
2024/01/15 21:27:53;;;;;;;;;;;17.50;54.00;;;;;;10249880;28;92857;-62
2024/01/15 21:32:55;;;;;;;;;;;17.50;54.10;;;;;;10253025;28;93430;-62
2024/01/15 21:37:57;;;;;;;;;;;17.30;54.20;;;;;;10269843;28;93973;-63
2024/01/15 21:42:59;;;;;;;;;;;17.20;54.20;;;;;;10249022;28;95838;-63
2024/01/15 21:48:01;;;;;;;;;;;17.10;54.30;;;;;;10263884;28;93478;-63
2024/01/15 21:53:04;;;;;;;;;;;17.00;54.40;;;;;;10267470;28;94405;-64
2024/01/15 21:58:06;;;;;;;;;;;16.90;54.60;;;;;;10269827;28;94321;-63
2024/01/15 22:03:07;;;;;;;;;;;16.80;54.60;;;;;;10268961;28;94163;-63
2024/01/15 22:08:10;;;;;;;;;;;16.70;54.70;;;;;;10264257;28;94103;-62
2024/01/15 22:13:12;;;;;;;;;;;16.60;54.80;;;;;;10280472;28;94730;-63
2024/01/15 22:18:14;;;;;;;;;;;16.50;54.80;;;;;;10264200;28;92720;-63
2024/01/15 22:23:16;;;;;;;;;;;16.50;54.90;;;;;;10294705;28;94435;-63
2024/01/15 22:28:18;;;;;;;;;;;16.40;54.90;;;;;;10267724;28;96053;-65
2024/01/15 22:33:20;;;;;;;;;;;16.40;54.90;;;;;;10263883;28;96619;-63
2024/01/15 22:38:22;;;;;;;;;;;16.30;55.00;;;;;;10274440;28;93614;-63
2024/01/15 22:43:24;;;;;;;;;;;16.30;55.00;;;;;;10267001;28;93580;-62
2024/01/15 22:48:26;;;;;;;;;;;16.20;55.00;;;;;;10257613;28;93397;-64
2024/01/15 22:53:28;;;;;;;;;;;16.10;55.00;;;;;;10255613;28;95318;-62
2024/01/15 22:58:30;;;;;;;;;;;16.10;55.10;;;;;;10264103;28;94824;-62
2024/01/15 23:03:32;;;;;;;;;;;16.10;55.30;;;;;;10269908;28;94495;-63
2024/01/15 23:08:34;;;;;;;;;;;16.00;55.20;;;;;;10268731;28;93685;-62
2024/01/15 23:13:39;;;;;;;;;;;16.00;55.20;;;;;;10283940;28;93530;-63
2024/01/15 23:18:44;;;;;;;;;;;15.90;54.90;;;;;;10261361;28;94415;-64
2024/01/15 23:23:46;;;;;;;;;;;15.90;54.60;;;;;;10246604;28;96916;-63
2024/01/15 23:28:49;;;;;;;;;;;15.90;54.40;;;;;;10269965;28;94406;-63
2024/01/15 23:33:51;;;;;;;;;;;15.90;54.20;;;;;;10261566;28;93462;-63
2024/01/15 23:38:53;;;;;;;;;;;15.90;54.00;;;;;;10246918;28;95123;-63
2024/01/15 23:43:55;;;;;;;;;;;15.80;53.70;;;;;;10259231;28;94032;-64
2024/01/15 23:48:57;;;;;;;;;;;15.80;53.60;;;;;;10269047;28;94354;-63
2024/01/15 23:53:59;;;;;;;;;;;15.80;53.60;;;;;;10258350;28;93995;-64
2024/01/15 23:59:00;;;;;;;;;;;15.80;54.00;;;;;;10262749;28;93876;-61
